CCV weather

Craig Cove Airport
Craig Cove, Malampa, Vanuatu

Public forecast

Using degrees Celsius for public forecast. Weather courtesy of forecast.io.

METAR (pilot weather report)

Closest report is Lamap Airport, 13.0 nm (24.0 km) SSW. Retrieved 2019/09/21 12:00 UTC (35 minutes ago):

NVSL 211200Z AUTO 15008KT //// // NCD 23/18 Q1017

TAF (pilot weather forecast)

Closest forecast is Lamap Airport, 13.0 nm (24.0 km) SSW. Retrieved 2019/09/21 12:08 UTC (27 minutes ago):

TAF NVSL 211000Z 2112/2212 13007KT 9999 SCT020